sensor_id;sensor_type;location;lat;lon;timestamp;P1;durP1;ratioP1;P2;durP2;ratioP2
56435;SDS011;42335;44.872;20.658;2022-12-29T00:02:25;53.42;;;26.42;;
56435;SDS011;42335;44.872;20.658;2022-12-29T00:04:51;44.90;;;25.42;;
56435;SDS011;42335;44.872;20.658;2022-12-29T00:07:17;49.63;;;26.50;;
56435;SDS011;42335;44.872;20.658;2022-12-29T00:09:43;50.90;;;27.70;;
56435;SDS011;42335;44.872;20.658;2022-12-29T00:12:09;53.75;;;26.20;;
56435;SDS011;42335;44.872;20.658;2022-12-29T00:14:35;47.30;;;25.35;;
56435;SDS011;42335;44.872;20.658;2022-12-29T00:17:19;49.63;;;23.88;;
56435;SDS011;42335;44.872;20.658;2022-12-29T00:19:44;41.92;;;21.98;;
56435;SDS011;42335;44.872;20.658;2022-12-29T00:25:13;44.17;;;21.58;;
56435;SDS011;42335;44.872;20.658;2022-12-29T00:27:58;42.00;;;21.45;;
56435;SDS011;42335;44.872;20.658;2022-12-29T00:30:42;45.55;;;21.65;;
56435;SDS011;42335;44.872;20.658;2022-12-29T00:33:30;43.47;;;22.42;;
56435;SDS011;42335;44.872;20.658;2022-12-29T00:38:48;47.47;;;22.70;;
56435;SDS011;42335;44.872;20.658;2022-12-29T00:41:36;48.65;;;24.67;;
56435;SDS011;42335;44.872;20.658;2022-12-29T00:44:20;40.70;;;22.23;;
56435;SDS011;42335;44.872;20.658;2022-12-29T00:46:46;44.58;;;23.83;;
56435;SDS011;42335;44.872;20.658;2022-12-29T00:49:13;36.92;;;21.40;;
56435;SDS011;42335;44.872;20.658;2022-12-29T00:52:04;47.47;;;23.30;;
56435;SDS011;42335;44.872;20.658;2022-12-29T00:54:32;43.90;;;22.40;;
56435;SDS011;42335;44.872;20.658;2022-12-29T00:57:00;40.25;;;21.88;;
56435;SDS011;42335;44.872;20.658;2022-12-29T00:59:26;42.40;;;22.98;;
56435;SDS011;42335;44.872;20.658;2022-12-29T01:01:52;42.30;;;22.50;;
56435;SDS011;42335;44.872;20.658;2022-12-29T01:04:20;42.88;;;21.50;;
56435;SDS011;42335;44.872;20.658;2022-12-29T01:06:46;41.03;;;20.02;;
56435;SDS011;42335;44.872;20.658;2022-12-29T01:09:12;36.95;;;20.88;;
56435;SDS011;42335;44.872;20.658;2022-12-29T01:11:57;42.17;;;20.88;;
56435;SDS011;42335;44.872;20.658;2022-12-29T01:14:23;40.13;;;20.80;;
56435;SDS011;42335;44.872;20.658;2022-12-29T01:16:49;37.63;;;19.77;;
56435;SDS011;42335;44.872;20.658;2022-12-29T01:19:16;44.58;;;20.67;;
56435;SDS011;42335;44.872;20.658;2022-12-29T01:21:42;38.85;;;20.25;;
56435;SDS011;42335;44.872;20.658;2022-12-29T01:24:08;34.70;;;18.55;;
56435;SDS011;42335;44.872;20.658;2022-12-29T01:26:34;34.08;;;18.52;;
56435;SDS011;42335;44.872;20.658;2022-12-29T01:29:00;35.03;;;18.90;;
56435;SDS011;42335;44.872;20.658;2022-12-29T01:31:26;37.03;;;21.33;;
56435;SDS011;42335;44.872;20.658;2022-12-29T01:33:51;34.55;;;18.88;;
56435;SDS011;42335;44.872;20.658;2022-12-29T01:36:17;36.15;;;18.30;;
56435;SDS011;42335;44.872;20.658;2022-12-29T01:38:45;35.50;;;19.23;;
56435;SDS011;42335;44.872;20.658;2022-12-29T01:41:11;35.67;;;17.50;;
56435;SDS011;42335;44.872;20.658;2022-12-29T01:49:00;41.53;;;18.80;;
56435;SDS011;42335;44.872;20.658;2022-12-29T01:51:33;41.92;;;18.70;;
56435;SDS011;42335;44.872;20.658;2022-12-29T01:54:04;46.65;;;19.35;;
56435;SDS011;42335;44.872;20.658;2022-12-29T01:56:35;56.50;;;22.27;;
56435;SDS011;42335;44.872;20.658;2022-12-29T01:59:02;62.78;;;21.80;;
56435;SDS011;42335;44.872;20.658;2022-12-29T02:01:33;60.70;;;20.98;;
56435;SDS011;42335;44.872;20.658;2022-12-29T02:03:59;57.35;;;21.17;;
56435;SDS011;42335;44.872;20.658;2022-12-29T02:06:31;45.28;;;19.65;;
56435;SDS011;42335;44.872;20.658;2022-12-29T02:09:02;36.90;;;19.70;;
56435;SDS011;42335;44.872;20.658;2022-12-29T02:11:28;39.20;;;19.73;;
56435;SDS011;42335;44.872;20.658;2022-12-29T02:13:55;41.38;;;18.85;;
56435;SDS011;42335;44.872;20.658;2022-12-29T02:16:38;51.97;;;22.20;;
56435;SDS011;42335;44.872;20.658;2022-12-29T02:27:25;46.95;;;19.85;;
56435;SDS011;42335;44.872;20.658;2022-12-29T02:48:25;53.92;;;22.65;;
56435;SDS011;42335;44.872;20.658;2022-12-29T02:51:02;34.58;;;19.90;;
56435;SDS011;42335;44.872;20.658;2022-12-29T02:53:30;42.75;;;20.48;;
56435;SDS011;42335;44.872;20.658;2022-12-29T02:56:17;41.65;;;20.83;;
56435;SDS011;42335;44.872;20.658;2022-12-29T02:58:42;42.65;;;21.73;;
56435;SDS011;42335;44.872;20.658;2022-12-29T03:01:27;39.70;;;21.02;;
56435;SDS011;42335;44.872;20.658;2022-12-29T03:09:33;38.72;;;21.08;;
56435;SDS011;42335;44.872;20.658;2022-12-29T03:12:24;41.65;;;20.23;;
56435;SDS011;42335;44.872;20.658;2022-12-29T03:15:21;52.15;;;24.13;;
56435;SDS011;42335;44.872;20.658;2022-12-29T03:23:25;39.33;;;20.17;;
56435;SDS011;42335;44.872;20.658;2022-12-29T03:25:52;40.20;;;22.33;;
56435;SDS011;42335;44.872;20.658;2022-12-29T03:28:25;37.33;;;19.00;;
56435;SDS011;42335;44.872;20.658;2022-12-29T03:30:57;38.17;;;21.90;;
56435;SDS011;42335;44.872;20.658;2022-12-29T03:33:25;47.15;;;20.95;;
56435;SDS011;42335;44.872;20.658;2022-12-29T03:35:54;41.15;;;23.15;;
56435;SDS011;42335;44.872;20.658;2022-12-29T03:38:47;40.92;;;22.33;;
56435;SDS011;42335;44.872;20.658;2022-12-29T03:41:22;44.40;;;22.30;;
56435;SDS011;42335;44.872;20.658;2022-12-29T03:43:51;44.15;;;22.27;;
56435;SDS011;42335;44.872;20.658;2022-12-29T03:46:16;39.72;;;20.73;;
56435;SDS011;42335;44.872;20.658;2022-12-29T03:48:42;49.28;;;23.80;;
56435;SDS011;42335;44.872;20.658;2022-12-29T03:51:08;39.05;;;21.77;;
56435;SDS011;42335;44.872;20.658;2022-12-29T03:53:33;41.55;;;23.52;;
56435;SDS011;42335;44.872;20.658;2022-12-29T03:55:59;43.10;;;23.38;;
56435;SDS011;42335;44.872;20.658;2022-12-29T03:58:25;34.38;;;20.88;;
56435;SDS011;42335;44.872;20.658;2022-12-29T04:00:50;38.83;;;23.10;;
56435;SDS011;42335;44.872;20.658;2022-12-29T04:03:16;43.85;;;22.88;;
56435;SDS011;42335;44.872;20.658;2022-12-29T04:05:42;39.50;;;22.67;;
56435;SDS011;42335;44.872;20.658;2022-12-29T04:08:07;45.33;;;21.90;;
56435;SDS011;42335;44.872;20.658;2022-12-29T04:10:33;45.15;;;23.13;;
56435;SDS011;42335;44.872;20.658;2022-12-29T04:12:59;44.42;;;23.92;;
56435;SDS011;42335;44.872;20.658;2022-12-29T04:15:25;41.65;;;21.45;;
56435;SDS011;42335;44.872;20.658;2022-12-29T04:17:51;44.72;;;24.60;;
56435;SDS011;42335;44.872;20.658;2022-12-29T04:20:17;39.50;;;23.50;;
56435;SDS011;42335;44.872;20.658;2022-12-29T04:25:30;43.85;;;21.70;;
56435;SDS011;42335;44.872;20.658;2022-12-29T04:27:57;39.63;;;23.05;;
56435;SDS011;42335;44.872;20.658;2022-12-29T04:30:22;39.63;;;21.45;;
56435;SDS011;42335;44.872;20.658;2022-12-29T04:32:48;39.00;;;21.83;;
56435;SDS011;42335;44.872;20.658;2022-12-29T04:35:14;42.20;;;21.63;;
56435;SDS011;42335;44.872;20.658;2022-12-29T04:37:39;40.78;;;23.40;;
56435;SDS011;42335;44.872;20.658;2022-12-29T04:40:05;43.78;;;24.13;;
56435;SDS011;42335;44.872;20.658;2022-12-29T04:42:31;38.65;;;22.27;;
56435;SDS011;42335;44.872;20.658;2022-12-29T04:44:57;36.85;;;21.08;;
56435;SDS011;42335;44.872;20.658;2022-12-29T04:47:23;34.45;;;19.92;;
56435;SDS011;42335;44.872;20.658;2022-12-29T04:49:48;39.58;;;22.02;;
56435;SDS011;42335;44.872;20.658;2022-12-29T04:52:14;39.83;;;21.58;;
56435;SDS011;42335;44.872;20.658;2022-12-29T04:54:39;33.97;;;21.05;;
56435;SDS011;42335;44.872;20.658;2022-12-29T04:57:05;38.42;;;20.95;;
56435;SDS011;42335;44.872;20.658;2022-12-29T04:59:31;37.30;;;20.27;;
56435;SDS011;42335;44.872;20.658;2022-12-29T05:01:56;45.95;;;20.85;;
56435;SDS011;42335;44.872;20.658;2022-12-29T05:04:22;39.10;;;21.63;;
56435;SDS011;42335;44.872;20.658;2022-12-29T05:06:48;43.58;;;21.52;;
56435;SDS011;42335;44.872;20.658;2022-12-29T05:09:13;38.00;;;21.73;;
56435;SDS011;42335;44.872;20.658;2022-12-29T05:11:39;41.05;;;21.40;;
56435;SDS011;42335;44.872;20.658;2022-12-29T05:14:05;323.58;;;159.68;;
56435;SDS011;42335;44.872;20.658;2022-12-29T05:16:30;457.83;;;299.80;;
56435;SDS011;42335;44.872;20.658;2022-12-29T05:18:56;129.07;;;74.35;;
56435;SDS011;42335;44.872;20.658;2022-12-29T05:21:22;46.63;;;22.73;;
56435;SDS011;42335;44.872;20.658;2022-12-29T05:23:47;41.95;;;23.35;;
56435;SDS011;42335;44.872;20.658;2022-12-29T05:26:13;43.05;;;24.23;;
56435;SDS011;42335;44.872;20.658;2022-12-29T05:28:39;43.25;;;23.70;;
56435;SDS011;42335;44.872;20.658;2022-12-29T05:31:04;41.28;;;21.92;;
56435;SDS011;42335;44.872;20.658;2022-12-29T05:33:30;42.55;;;21.35;;
56435;SDS011;42335;44.872;20.658;2022-12-29T05:35:56;41.80;;;23.23;;
56435;SDS011;42335;44.872;20.658;2022-12-29T05:38:21;41.47;;;21.85;;
56435;SDS011;42335;44.872;20.658;2022-12-29T05:40:47;189.50;;;105.00;;
56435;SDS011;42335;44.872;20.658;2022-12-29T05:43:13;44.65;;;25.63;;
56435;SDS011;42335;44.872;20.658;2022-12-29T05:45:38;40.88;;;22.27;;
56435;SDS011;42335;44.872;20.658;2022-12-29T05:48:04;41.70;;;23.38;;
56435;SDS011;42335;44.872;20.658;2022-12-29T05:50:30;37.65;;;21.90;;
56435;SDS011;42335;44.872;20.658;2022-12-29T05:52:55;40.20;;;22.42;;
56435;SDS011;42335;44.872;20.658;2022-12-29T05:55:21;37.03;;;21.08;;
56435;SDS011;42335;44.872;20.658;2022-12-29T05:57:47;41.38;;;21.45;;
56435;SDS011;42335;44.872;20.658;2022-12-29T06:00:12;40.05;;;20.63;;
56435;SDS011;42335;44.872;20.658;2022-12-29T06:02:39;32.75;;;20.70;;
56435;SDS011;42335;44.872;20.658;2022-12-29T06:05:05;39.25;;;20.52;;
56435;SDS011;42335;44.872;20.658;2022-12-29T06:07:30;41.80;;;22.00;;
56435;SDS011;42335;44.872;20.658;2022-12-29T06:09:56;34.13;;;20.83;;
56435;SDS011;42335;44.872;20.658;2022-12-29T06:12:22;40.70;;;23.33;;
56435;SDS011;42335;44.872;20.658;2022-12-29T06:14:47;37.33;;;22.15;;
56435;SDS011;42335;44.872;20.658;2022-12-29T06:17:13;170.77;;;93.25;;
56435;SDS011;42335;44.872;20.658;2022-12-29T06:19:39;71.35;;;40.00;;
56435;SDS011;42335;44.872;20.658;2022-12-29T06:22:04;44.20;;;25.08;;
56435;SDS011;42335;44.872;20.658;2022-12-29T06:24:32;47.95;;;26.33;;
56435;SDS011;42335;44.872;20.658;2022-12-29T06:26:58;47.25;;;23.40;;
56435;SDS011;42335;44.872;20.658;2022-12-29T06:29:23;45.88;;;26.45;;
56435;SDS011;42335;44.872;20.658;2022-12-29T06:31:49;44.30;;;23.90;;
56435;SDS011;42335;44.872;20.658;2022-12-29T06:34:21;48.13;;;25.23;;
56435;SDS011;42335;44.872;20.658;2022-12-29T06:36:46;46.50;;;27.95;;
56435;SDS011;42335;44.872;20.658;2022-12-29T06:39:12;38.67;;;21.40;;
56435;SDS011;42335;44.872;20.658;2022-12-29T06:41:38;50.75;;;22.13;;
56435;SDS011;42335;44.872;20.658;2022-12-29T06:44:05;41.72;;;21.98;;
56435;SDS011;42335;44.872;20.658;2022-12-29T06:46:31;35.13;;;19.63;;
56435;SDS011;42335;44.872;20.658;2022-12-29T06:48:56;35.38;;;20.38;;
56435;SDS011;42335;44.872;20.658;2022-12-29T06:51:22;35.88;;;19.70;;
56435;SDS011;42335;44.872;20.658;2022-12-29T06:53:47;34.97;;;18.75;;
56435;SDS011;42335;44.872;20.658;2022-12-29T06:56:14;32.60;;;17.77;;
56435;SDS011;42335;44.872;20.658;2022-12-29T06:58:42;35.78;;;17.60;;
56435;SDS011;42335;44.872;20.658;2022-12-29T07:01:07;40.08;;;19.85;;
56435;SDS011;42335;44.872;20.658;2022-12-29T07:03:33;43.60;;;22.48;;
56435;SDS011;42335;44.872;20.658;2022-12-29T07:05:58;35.50;;;21.40;;
56435;SDS011;42335;44.872;20.658;2022-12-29T07:08:24;34.35;;;19.45;;
56435;SDS011;42335;44.872;20.658;2022-12-29T07:10:50;32.47;;;19.63;;
56435;SDS011;42335;44.872;20.658;2022-12-29T07:13:16;46.85;;;21.95;;
56435;SDS011;42335;44.872;20.658;2022-12-29T07:15:41;36.60;;;22.65;;
56435;SDS011;42335;44.872;20.658;2022-12-29T07:18:07;40.33;;;23.15;;
56435;SDS011;42335;44.872;20.658;2022-12-29T07:20:33;38.55;;;22.48;;
56435;SDS011;42335;44.872;20.658;2022-12-29T07:22:58;31.90;;;18.73;;
56435;SDS011;42335;44.872;20.658;2022-12-29T07:25:24;36.95;;;20.52;;
56435;SDS011;42335;44.872;20.658;2022-12-29T07:27:50;30.52;;;19.13;;
56435;SDS011;42335;44.872;20.658;2022-12-29T07:30:15;31.25;;;19.15;;
56435;SDS011;42335;44.872;20.658;2022-12-29T07:32:41;35.63;;;18.75;;
56435;SDS011;42335;44.872;20.658;2022-12-29T07:35:07;31.83;;;19.05;;
56435;SDS011;42335;44.872;20.658;2022-12-29T07:37:33;30.55;;;18.85;;
56435;SDS011;42335;44.872;20.658;2022-12-29T07:40:00;36.30;;;19.70;;
56435;SDS011;42335;44.872;20.658;2022-12-29T07:42:26;28.88;;;18.48;;
56435;SDS011;42335;44.872;20.658;2022-12-29T07:44:52;40.15;;;22.52;;
56435;SDS011;42335;44.872;20.658;2022-12-29T07:47:17;39.65;;;21.25;;
56435;SDS011;42335;44.872;20.658;2022-12-29T07:49:43;36.55;;;20.88;;
56435;SDS011;42335;44.872;20.658;2022-12-29T07:52:09;35.65;;;22.00;;
56435;SDS011;42335;44.872;20.658;2022-12-29T07:54:34;44.42;;;23.75;;
56435;SDS011;42335;44.872;20.658;2022-12-29T07:57:00;36.35;;;22.75;;
56435;SDS011;42335;44.872;20.658;2022-12-29T07:59:26;34.75;;;21.55;;
56435;SDS011;42335;44.872;20.658;2022-12-29T08:01:52;37.00;;;21.92;;
56435;SDS011;42335;44.872;20.658;2022-12-29T08:04:18;38.50;;;21.95;;
56435;SDS011;42335;44.872;20.658;2022-12-29T08:06:44;33.47;;;19.33;;
56435;SDS011;42335;44.872;20.658;2022-12-29T08:09:10;33.92;;;21.85;;
56435;SDS011;42335;44.872;20.658;2022-12-29T08:11:36;38.67;;;22.35;;
56435;SDS011;42335;44.872;20.658;2022-12-29T08:14:02;46.50;;;24.70;;
56435;SDS011;42335;44.872;20.658;2022-12-29T08:16:28;38.83;;;24.02;;
56435;SDS011;42335;44.872;20.658;2022-12-29T08:18:54;48.60;;;26.17;;
56435;SDS011;42335;44.872;20.658;2022-12-29T08:21:20;40.47;;;25.40;;
56435;SDS011;42335;44.872;20.658;2022-12-29T08:23:47;44.70;;;24.05;;
56435;SDS011;42335;44.872;20.658;2022-12-29T08:26:13;41.90;;;23.88;;
56435;SDS011;42335;44.872;20.658;2022-12-29T08:28:38;38.08;;;22.80;;
56435;SDS011;42335;44.872;20.658;2022-12-29T08:31:04;35.47;;;22.33;;
56435;SDS011;42335;44.872;20.658;2022-12-29T08:33:30;36.28;;;22.88;;
56435;SDS011;42335;44.872;20.658;2022-12-29T08:36:02;37.60;;;22.65;;
56435;SDS011;42335;44.872;20.658;2022-12-29T08:38:30;37.10;;;22.15;;
56435;SDS011;42335;44.872;20.658;2022-12-29T08:40:56;33.22;;;21.85;;
56435;SDS011;42335;44.872;20.658;2022-12-29T08:43:26;36.03;;;24.38;;
56435;SDS011;42335;44.872;20.658;2022-12-29T08:45:53;41.35;;;25.38;;
56435;SDS011;42335;44.872;20.658;2022-12-29T08:48:19;35.63;;;23.67;;
56435;SDS011;42335;44.872;20.658;2022-12-29T08:50:47;29.20;;;19.17;;
56435;SDS011;42335;44.872;20.658;2022-12-29T08:53:13;28.80;;;20.15;;
56435;SDS011;42335;44.872;20.658;2022-12-29T08:55:39;28.08;;;19.05;;
56435;SDS011;42335;44.872;20.658;2022-12-29T08:58:04;28.08;;;19.30;;
56435;SDS011;42335;44.872;20.658;2022-12-29T09:00:30;39.40;;;21.08;;
56435;SDS011;42335;44.872;20.658;2022-12-29T09:02:55;28.50;;;20.05;;
56435;SDS011;42335;44.872;20.658;2022-12-29T09:05:23;30.45;;;20.92;;
56435;SDS011;42335;44.872;20.658;2022-12-29T09:07:49;27.70;;;19.48;;
56435;SDS011;42335;44.872;20.658;2022-12-29T09:10:14;29.63;;;19.60;;
56435;SDS011;42335;44.872;20.658;2022-12-29T09:12:43;21.38;;;17.98;;
56435;SDS011;42335;44.872;20.658;2022-12-29T09:15:09;25.90;;;18.08;;
56435;SDS011;42335;44.872;20.658;2022-12-29T09:17:35;25.63;;;16.75;;
56435;SDS011;42335;44.872;20.658;2022-12-29T09:20:14;18.80;;;15.68;;
56435;SDS011;42335;44.872;20.658;2022-12-29T09:22:42;21.88;;;16.80;;
56435;SDS011;42335;44.872;20.658;2022-12-29T09:25:09;24.25;;;18.27;;
56435;SDS011;42335;44.872;20.658;2022-12-29T09:27:35;23.98;;;16.75;;
56435;SDS011;42335;44.872;20.658;2022-12-29T09:30:05;22.70;;;17.85;;
56435;SDS011;42335;44.872;20.658;2022-12-29T09:32:33;22.35;;;17.10;;
56435;SDS011;42335;44.872;20.658;2022-12-29T09:34:59;22.23;;;16.92;;
56435;SDS011;42335;44.872;20.658;2022-12-29T09:37:25;26.98;;;17.17;;
56435;SDS011;42335;44.872;20.658;2022-12-29T09:39:50;21.90;;;16.50;;
56435;SDS011;42335;44.872;20.658;2022-12-29T09:42:19;20.00;;;16.15;;
56435;SDS011;42335;44.872;20.658;2022-12-29T09:47:36;20.42;;;16.48;;
56435;SDS011;42335;44.872;20.658;2022-12-29T09:50:09;23.45;;;16.20;;
56435;SDS011;42335;44.872;20.658;2022-12-29T09:55:42;31.80;;;18.08;;
56435;SDS011;42335;44.872;20.658;2022-12-29T10:00:56;24.97;;;17.93;;
56435;SDS011;42335;44.872;20.658;2022-12-29T10:03:47;30.05;;;19.40;;
56435;SDS011;42335;44.872;20.658;2022-12-29T10:06:17;25.45;;;19.35;;
56435;SDS011;42335;44.872;20.658;2022-12-29T10:09:08;28.17;;;20.00;;
56435;SDS011;42335;44.872;20.658;2022-12-29T10:11:53;24.33;;;19.27;;
56435;SDS011;42335;44.872;20.658;2022-12-29T10:25:19;31.98;;;23.60;;
56435;SDS011;42335;44.872;20.658;2022-12-29T10:27:48;36.63;;;22.80;;
56435;SDS011;42335;44.872;20.658;2022-12-29T10:30:15;38.10;;;23.63;;
56435;SDS011;42335;44.872;20.658;2022-12-29T10:35:21;38.50;;;25.60;;
56435;SDS011;42335;44.872;20.658;2022-12-29T10:40:44;38.00;;;24.75;;
56435;SDS011;42335;44.872;20.658;2022-12-29T10:45:47;26.70;;;21.03;;
56435;SDS011;42335;44.872;20.658;2022-12-29T10:48:21;29.40;;;20.65;;
56435;SDS011;42335;44.872;20.658;2022-12-29T10:50:50;31.33;;;20.88;;
56435;SDS011;42335;44.872;20.658;2022-12-29T10:53:22;32.83;;;22.08;;
56435;SDS011;42335;44.872;20.658;2022-12-29T10:55:52;31.25;;;19.25;;
56435;SDS011;42335;44.872;20.658;2022-12-29T10:58:18;26.13;;;19.48;;
56435;SDS011;42335;44.872;20.658;2022-12-29T11:00:49;23.23;;;19.23;;
56435;SDS011;42335;44.872;20.658;2022-12-29T11:06:09;25.63;;;19.58;;
56435;SDS011;42335;44.872;20.658;2022-12-29T11:09:14;24.23;;;20.02;;
56435;SDS011;42335;44.872;20.658;2022-12-29T11:11:44;23.23;;;18.02;;
56435;SDS011;42335;44.872;20.658;2022-12-29T11:14:12;26.15;;;19.25;;
56435;SDS011;42335;44.872;20.658;2022-12-29T11:16:38;31.15;;;20.45;;
56435;SDS011;42335;44.872;20.658;2022-12-29T11:19:09;28.48;;;20.67;;
56435;SDS011;42335;44.872;20.658;2022-12-29T11:21:45;32.38;;;21.33;;
56435;SDS011;42335;44.872;20.658;2022-12-29T11:24:19;29.85;;;21.67;;
56435;SDS011;42335;44.872;20.658;2022-12-29T11:26:52;26.73;;;20.80;;
56435;SDS011;42335;44.872;20.658;2022-12-29T11:29:27;26.50;;;20.98;;
56435;SDS011;42335;44.872;20.658;2022-12-29T11:32:04;32.30;;;22.15;;
56435;SDS011;42335;44.872;20.658;2022-12-29T11:34:44;28.63;;;20.93;;
56435;SDS011;42335;44.872;20.658;2022-12-29T11:39:52;26.45;;;19.48;;
56435;SDS011;42335;44.872;20.658;2022-12-29T11:47:44;27.00;;;18.55;;
56435;SDS011;42335;44.872;20.658;2022-12-29T11:50:17;24.23;;;17.70;;
56435;SDS011;42335;44.872;20.658;2022-12-29T11:52:45;30.23;;;19.98;;
56435;SDS011;42335;44.872;20.658;2022-12-29T11:55:17;23.92;;;17.20;;
56435;SDS011;42335;44.872;20.658;2022-12-29T11:57:46;24.08;;;18.85;;
56435;SDS011;42335;44.872;20.658;2022-12-29T12:00:14;23.20;;;17.48;;
56435;SDS011;42335;44.872;20.658;2022-12-29T12:05:28;20.98;;;16.85;;
56435;SDS011;42335;44.872;20.658;2022-12-29T12:10:45;25.38;;;19.10;;
56435;SDS011;42335;44.872;20.658;2022-12-29T12:16:28;26.55;;;20.27;;
56435;SDS011;42335;44.872;20.658;2022-12-29T12:19:02;37.75;;;21.05;;
56435;SDS011;42335;44.872;20.658;2022-12-29T12:21:34;27.88;;;22.30;;
56435;SDS011;42335;44.872;20.658;2022-12-29T12:27:15;32.45;;;22.90;;
56435;SDS011;42335;44.872;20.658;2022-12-29T12:35:07;45.25;;;23.90;;
56435;SDS011;42335;44.872;20.658;2022-12-29T12:59:53;47.35;;;29.50;;
56435;SDS011;42335;44.872;20.658;2022-12-29T13:05:16;46.75;;;28.63;;
56435;SDS011;42335;44.872;20.658;2022-12-29T13:10:41;46.55;;;29.73;;
56435;SDS011;42335;44.872;20.658;2022-12-29T13:26:53;43.45;;;29.20;;
56435;SDS011;42335;44.872;20.658;2022-12-29T13:29:35;48.00;;;27.60;;
56435;SDS011;42335;44.872;20.658;2022-12-29T13:32:26;55.03;;;29.63;;
56435;SDS011;42335;44.872;20.658;2022-12-29T13:37:47;45.30;;;28.77;;
56435;SDS011;42335;44.872;20.658;2022-12-29T13:40:23;51.35;;;29.75;;
56435;SDS011;42335;44.872;20.658;2022-12-29T13:42:55;46.10;;;29.00;;
56435;SDS011;42335;44.872;20.658;2022-12-29T13:45:23;44.00;;;29.75;;
56435;SDS011;42335;44.872;20.658;2022-12-29T13:50:25;55.00;;;32.20;;
56435;SDS011;42335;44.872;20.658;2022-12-29T13:53:19;50.42;;;30.88;;
56435;SDS011;42335;44.872;20.658;2022-12-29T13:58:37;45.33;;;26.92;;
56435;SDS011;42335;44.872;20.658;2022-12-29T14:01:08;46.17;;;25.48;;
56435;SDS011;42335;44.872;20.658;2022-12-29T14:08:58;53.45;;;28.05;;
56435;SDS011;42335;44.872;20.658;2022-12-29T14:11:44;48.08;;;27.15;;
56435;SDS011;42335;44.872;20.658;2022-12-29T14:14:22;46.75;;;28.30;;
56435;SDS011;42335;44.872;20.658;2022-12-29T14:16:49;45.63;;;25.17;;
56435;SDS011;42335;44.872;20.658;2022-12-29T14:19:16;45.05;;;25.80;;
56435;SDS011;42335;44.872;20.658;2022-12-29T14:22:02;47.78;;;27.48;;
56435;SDS011;42335;44.872;20.658;2022-12-29T14:34:58;46.58;;;29.85;;
56435;SDS011;42335;44.872;20.658;2022-12-29T14:37:28;54.70;;;31.48;;
56435;SDS011;42335;44.872;20.658;2022-12-29T14:42:47;57.65;;;32.33;;
56435;SDS011;42335;44.872;20.658;2022-12-29T14:47:40;66.28;;;31.17;;
56435;SDS011;42335;44.872;20.658;2022-12-29T14:50:07;42.90;;;26.13;;
56435;SDS011;42335;44.872;20.658;2022-12-29T14:53:02;39.97;;;26.02;;
56435;SDS011;42335;44.872;20.658;2022-12-29T14:56:08;43.08;;;25.05;;
56435;SDS011;42335;44.872;20.658;2022-12-29T14:58:29;40.17;;;25.85;;
56435;SDS011;42335;44.872;20.658;2022-12-29T15:00:58;44.20;;;24.42;;
56435;SDS011;42335;44.872;20.658;2022-12-29T15:03:38;46.20;;;26.92;;
56435;SDS011;42335;44.872;20.658;2022-12-29T15:06:17;45.80;;;26.80;;
56435;SDS011;42335;44.872;20.658;2022-12-29T15:08:51;44.33;;;25.52;;
56435;SDS011;42335;44.872;20.658;2022-12-29T15:11:30;46.45;;;25.73;;
56435;SDS011;42335;44.872;20.658;2022-12-29T15:14:03;47.53;;;28.55;;
56435;SDS011;42335;44.872;20.658;2022-12-29T15:16:48;41.90;;;25.85;;
56435;SDS011;42335;44.872;20.658;2022-12-29T15:19:21;48.72;;;26.80;;
56435;SDS011;42335;44.872;20.658;2022-12-29T15:21:47;49.55;;;25.58;;
56435;SDS011;42335;44.872;20.658;2022-12-29T15:24:14;46.92;;;27.75;;
56435;SDS011;42335;44.872;20.658;2022-12-29T15:26:41;49.35;;;27.77;;
56435;SDS011;42335;44.872;20.658;2022-12-29T15:31:55;55.17;;;32.35;;
56435;SDS011;42335;44.872;20.658;2022-12-29T15:34:23;65.53;;;35.20;;
56435;SDS011;42335;44.872;20.658;2022-12-29T15:36:49;62.67;;;34.35;;
56435;SDS011;42335;44.872;20.658;2022-12-29T15:39:27;50.28;;;30.63;;
56435;SDS011;42335;44.872;20.658;2022-12-29T15:41:56;52.42;;;31.70;;
56435;SDS011;42335;44.872;20.658;2022-12-29T15:47:05;59.45;;;32.17;;
56435;SDS011;42335;44.872;20.658;2022-12-29T15:49:37;72.45;;;38.17;;
56435;SDS011;42335;44.872;20.658;2022-12-29T15:52:09;73.22;;;38.58;;
56435;SDS011;42335;44.872;20.658;2022-12-29T15:54:36;68.47;;;39.33;;
56435;SDS011;42335;44.872;20.658;2022-12-29T15:57:11;68.25;;;39.70;;
56435;SDS011;42335;44.872;20.658;2022-12-29T15:59:47;62.75;;;34.95;;
56435;SDS011;42335;44.872;20.658;2022-12-29T16:02:13;57.50;;;34.00;;
56435;SDS011;42335;44.872;20.658;2022-12-29T16:04:39;51.58;;;30.23;;
56435;SDS011;42335;44.872;20.658;2022-12-29T16:07:21;51.75;;;29.80;;
56435;SDS011;42335;44.872;20.658;2022-12-29T16:09:48;51.35;;;28.95;;
56435;SDS011;42335;44.872;20.658;2022-12-29T16:12:21;50.65;;;30.02;;
56435;SDS011;42335;44.872;20.658;2022-12-29T16:14:54;48.03;;;29.73;;
56435;SDS011;42335;44.872;20.658;2022-12-29T16:17:25;52.33;;;30.75;;
56435;SDS011;42335;44.872;20.658;2022-12-29T16:19:57;55.30;;;30.05;;
56435;SDS011;42335;44.872;20.658;2022-12-29T16:22:35;56.08;;;32.00;;
56435;SDS011;42335;44.872;20.658;2022-12-29T16:27:57;55.75;;;33.88;;
56435;SDS011;42335;44.872;20.658;2022-12-29T16:30:28;62.88;;;35.85;;
56435;SDS011;42335;44.872;20.658;2022-12-29T16:32:57;68.43;;;37.88;;
56435;SDS011;42335;44.872;20.658;2022-12-29T16:35:26;81.00;;;44.03;;
56435;SDS011;42335;44.872;20.658;2022-12-29T16:40:52;99.60;;;57.05;;
56435;SDS011;42335;44.872;20.658;2022-12-29T16:43:32;103.93;;;56.85;;
56435;SDS011;42335;44.872;20.658;2022-12-29T16:48:45;97.32;;;51.90;;
56435;SDS011;42335;44.872;20.658;2022-12-29T16:51:19;79.85;;;45.40;;
56435;SDS011;42335;44.872;20.658;2022-12-29T16:53:55;91.18;;;46.33;;
56435;SDS011;42335;44.872;20.658;2022-12-29T16:56:22;106.05;;;54.65;;
56435;SDS011;42335;44.872;20.658;2022-12-29T16:59:00;116.95;;;56.60;;
56435;SDS011;42335;44.872;20.658;2022-12-29T17:01:40;108.47;;;59.25;;
56435;SDS011;42335;44.872;20.658;2022-12-29T17:04:06;110.13;;;58.33;;
56435;SDS011;42335;44.872;20.658;2022-12-29T17:06:34;104.00;;;57.03;;
56435;SDS011;42335;44.872;20.658;2022-12-29T17:08:59;102.13;;;59.38;;
56435;SDS011;42335;44.872;20.658;2022-12-29T17:11:27;104.50;;;59.90;;
56435;SDS011;42335;44.872;20.658;2022-12-29T17:16:46;88.90;;;51.72;;
56435;SDS011;42335;44.872;20.658;2022-12-29T17:19:16;91.63;;;50.75;;
56435;SDS011;42335;44.872;20.658;2022-12-29T17:21:44;87.32;;;47.70;;
56435;SDS011;42335;44.872;20.658;2022-12-29T17:24:17;81.20;;;46.10;;
56435;SDS011;42335;44.872;20.658;2022-12-29T17:26:50;80.63;;;47.72;;
56435;SDS011;42335;44.872;20.658;2022-12-29T17:32:12;90.00;;;49.58;;
56435;SDS011;42335;44.872;20.658;2022-12-29T17:34:39;86.47;;;54.53;;
56435;SDS011;42335;44.872;20.658;2022-12-29T17:39:49;78.03;;;50.63;;
56435;SDS011;42335;44.872;20.658;2022-12-29T17:42:15;70.05;;;43.55;;
56435;SDS011;42335;44.872;20.658;2022-12-29T17:44:42;73.35;;;44.45;;